Time;durP1;ratioP1;P1;durP2;ratioP2;P2;SDS_P1;SDS_P2;PMS_P1;PMS_P2;Temp;Humidity;BMP_temperature;BMP_pressure;BME280_temperature;BME280_humidity;BME280_pressure;Samples;Min_cycle;Max_cycle;Signal;HPM_P1;HPM_P2
2022/04/10 00:00:13;;;;;;;2.33;1.50;;;2.50;99.90;;;;;;7372590;19;20344;-70
2022/04/10 00:02:39;;;;;;;3.03;1.60;;;2.50;99.90;;;;;;7375804;19;20366;-72
2022/04/10 00:05:05;;;;;;;2.20;1.60;;;2.50;99.90;;;;;;7372727;19;20357;-71
2022/04/10 00:07:31;;;;;;;1.53;1.43;;;2.50;99.90;;;;;;7371878;19;20349;-71
2022/04/10 00:09:57;;;;;;;3.90;1.52;;;2.50;99.90;;;;;;7372172;19;20336;-71
2022/04/10 00:12:22;;;;;;;2.27;1.73;;;2.50;99.90;;;;;;7369467;19;20355;-73
2022/04/10 00:14:48;;;;;;;2.20;1.53;;;2.50;99.90;;;;;;7368996;19;20439;-71
2022/04/10 00:17:14;;;;;;;2.03;1.58;;;2.40;99.90;;;;;;7373628;19;20388;-72
2022/04/10 00:19:40;;;;;;;2.60;1.52;;;2.50;99.90;;;;;;7371171;19;20316;-71
2022/04/10 00:22:06;;;;;;;2.38;1.73;;;2.40;99.90;;;;;;7369874;19;20312;-71
2022/04/10 00:24:32;;;;;;;1.98;1.63;;;2.40;99.90;;;;;;7370754;19;20448;-72
2022/04/10 00:26:57;;;;;;;2.53;1.60;;;2.40;99.90;;;;;;7369886;19;20337;-71
2022/04/10 00:29:23;;;;;;;1.52;1.30;;;2.40;99.90;;;;;;7373844;19;20321;-72
2022/04/10 00:31:48;;;;;;;1.60;1.50;;;2.40;99.90;;;;;;7371331;19;20356;-71
2022/04/10 00:34:14;;;;;;;2.77;1.50;;;2.40;99.90;;;;;;7372447;19;20408;-71
2022/04/10 00:36:40;;;;;;;1.30;1.20;;;2.40;99.90;;;;;;7373287;19;20439;-71
2022/04/10 00:39:06;;;;;;;1.57;1.47;;;2.40;99.90;;;;;;7373832;19;20356;-69
2022/04/10 00:41:32;;;;;;;2.15;1.52;;;2.40;99.90;;;;;;7370254;19;20309;-71
2022/04/10 00:44:05;;;;;;;2.60;1.67;;;2.30;99.90;;;;;;7373264;19;20333;-71
2022/04/10 00:46:31;;;;;;;2.08;1.70;;;2.30;99.90;;;;;;7371482;19;20297;-71
2022/04/10 00:48:56;;;;;;;1.88;1.50;;;2.20;99.90;;;;;;7375068;19;20358;-71
2022/04/10 00:54:24;;;;;;;2.33;1.58;;;2.10;99.90;;;;;;7276245;19;2004546;-74
2022/04/10 00:56:50;;;;;;;1.95;1.50;;;2.10;99.90;;;;;;7378391;19;20344;-72
2022/04/10 00:59:16;;;;;;;1.73;1.52;;;2.10;99.90;;;;;;7381079;19;20375;-71
2022/04/10 01:01:45;;;;;;;2.40;1.60;;;2.10;99.90;;;;;;7376912;19;20344;-73
2022/04/10 01:04:15;;;;;;;1.63;1.50;;;2.10;99.90;;;;;;7203241;19;3439251;-71
2022/04/10 01:06:46;;;;;;;1.95;1.75;;;2.10;99.90;;;;;;7381613;19;20316;-71
2022/04/10 01:09:12;;;;;;;3.00;1.75;;;2.00;99.90;;;;;;7279246;19;2004473;-72
2022/04/10 01:11:38;;;;;;;2.20;1.70;;;2.00;99.90;;;;;;7379654;19;20319;-71
2022/04/10 01:14:08;;;;;;;2.00;1.50;;;2.00;99.90;;;;;;7379292;19;20855;-71
2022/04/10 01:16:36;;;;;;;2.30;1.60;;;2.00;99.90;;;;;;7381146;19;20285;-71
2022/04/10 01:19:03;;;;;;;1.77;1.67;;;2.00;99.90;;;;;;7378548;19;20710;-71
2022/04/10 01:21:28;;;;;;;1.67;1.58;;;2.00;99.90;;;;;;7377929;19;20329;-71
2022/04/10 01:23:57;;;;;;;1.63;1.52;;;2.00;99.90;;;;;;7379998;19;20305;-70
2022/04/10 01:26:25;;;;;;;2.05;1.60;;;2.00;99.90;;;;;;7380125;19;20309;-71
2022/04/10 01:29:04;;;;;;;1.55;1.45;;;2.00;99.90;;;;;;7379958;19;20308;-71
2022/04/10 01:31:33;;;;;;;1.60;1.48;;;2.00;99.90;;;;;;7378412;19;20800;-71
2022/04/10 01:34:00;;;;;;;1.90;1.58;;;2.00;99.90;;;;;;7379971;19;20330;-71
2022/04/10 01:36:27;;;;;;;1.75;1.65;;;2.00;99.90;;;;;;7379640;19;20324;-71
2022/04/10 01:38:55;;;;;;;1.88;1.60;;;2.00;99.90;;;;;;7381588;19;20343;-69
2022/04/10 01:41:25;;;;;;;3.13;1.75;;;2.00;99.90;;;;;;7378865;19;20309;-70
2022/04/10 01:43:52;;;;;;;1.77;1.67;;;2.00;99.90;;;;;;7380141;19;20872;-69
2022/04/10 01:46:18;;;;;;;1.88;1.75;;;2.00;99.90;;;;;;7377481;19;20321;-71
2022/04/10 01:48:44;;;;;;;2.80;1.90;;;2.00;99.90;;;;;;7380384;19;20345;-69
2022/04/10 01:51:10;;;;;;;2.90;1.85;;;2.00;99.90;;;;;;7377482;19;20305;-70
2022/04/10 01:53:36;;;;;;;1.70;1.60;;;1.90;99.90;;;;;;7380578;19;20355;-71
2022/04/10 01:56:02;;;;;;;1.50;1.40;;;1.90;99.90;;;;;;7376948;19;20899;-71
2022/04/10 01:58:29;;;;;;;2.00;1.55;;;1.90;99.90;;;;;;7380423;19;20325;-72
2022/04/10 02:00:54;;;;;;;3.20;1.83;;;1.90;99.90;;;;;;7376123;19;20412;-72
2022/04/10 02:03:20;;;;;;;2.20;1.77;;;1.90;99.90;;;;;;7378025;19;20404;-71
2022/04/10 02:05:46;;;;;;;2.00;1.80;;;1.90;99.90;;;;;;7376622;19;20365;-72
2022/04/10 02:08:14;;;;;;;2.53;1.83;;;1.90;99.90;;;;;;7379548;19;20317;-72
2022/04/10 02:10:40;;;;;;;1.70;1.60;;;1.80;99.90;;;;;;7379524;19;20328;-71
2022/04/10 02:13:09;;;;;;;1.40;1.30;;;1.80;99.90;;;;;;7375083;19;20352;-72
2022/04/10 02:15:39;;;;;;;1.60;1.50;;;1.80;99.90;;;;;;7378725;19;20297;-72
2022/04/10 02:18:05;;;;;;;1.70;1.60;;;1.80;99.90;;;;;;7379689;19;20308;-71
2022/04/10 02:20:31;;;;;;;1.90;1.77;;;1.80;99.90;;;;;;7378619;19;20308;-74
2022/04/10 02:22:57;;;;;;;2.70;1.90;;;1.80;99.90;;;;;;7378640;19;20364;-70
2022/04/10 02:25:22;;;;;;;2.30;1.90;;;1.70;99.90;;;;;;7377864;19;20317;-70
2022/04/10 02:27:48;;;;;;;2.90;1.92;;;1.70;99.90;;;;;;7379549;19;20477;-71
2022/04/10 02:30:14;;;;;;;2.03;1.70;;;1.70;99.90;;;;;;7376142;19;20924;-72
2022/04/10 02:32:40;;;;;;;3.17;2.00;;;1.70;99.90;;;;;;7379214;19;20312;-70
2022/04/10 02:35:07;;;;;;;2.28;2.00;;;1.70;99.90;;;;;;7378328;19;20682;-70
2022/04/10 02:37:33;;;;;;;2.03;1.83;;;1.70;99.90;;;;;;7378003;19;20371;-70
2022/04/10 02:39:58;;;;;;;2.37;1.93;;;1.70;99.90;;;;;;7378560;19;20849;-70
2022/04/10 02:42:24;;;;;;;3.45;1.98;;;1.70;99.90;;;;;;7376985;19;20320;-70
2022/04/10 02:44:50;;;;;;;2.67;1.80;;;1.70;99.90;;;;;;7379198;19;20337;-70
2022/04/10 02:47:15;;;;;;;1.93;1.63;;;1.70;99.90;;;;;;7376596;19;20884;-70
2022/04/10 02:49:41;;;;;;;2.40;1.85;;;1.60;99.90;;;;;;7378265;19;20360;-70
2022/04/10 02:52:07;;;;;;;2.00;1.80;;;1.70;99.90;;;;;;7378353;19;20328;-71
2022/04/10 02:54:33;;;;;;;2.70;1.90;;;1.60;99.90;;;;;;7377872;19;20308;-71
2022/04/10 02:56:59;;;;;;;2.00;1.77;;;1.60;99.90;;;;;;7378501;19;21184;-70
2022/04/10 02:59:25;;;;;;;2.83;1.80;;;1.60;99.90;;;;;;7379329;19;20350;-70
2022/04/10 03:01:50;;;;;;;1.98;1.80;;;1.70;99.90;;;;;;7375262;19;20760;-70
2022/04/10 03:04:17;;;;;;;2.88;1.73;;;1.70;99.90;;;;;;7377885;19;20682;-70
2022/04/10 03:06:42;;;;;;;2.72;1.80;;;1.80;99.90;;;;;;7377288;19;20344;-71
2022/04/10 03:09:08;;;;;;;2.85;1.95;;;1.80;99.90;;;;;;7377209;19;20654;-71
2022/04/10 03:11:36;;;;;;;4.97;1.97;;;1.90;99.90;;;;;;7376826;19;20328;-71
2022/04/10 03:14:02;;;;;;;1.70;1.60;;;1.90;99.90;;;;;;7365277;19;20420;-70
2022/04/10 03:16:28;;;;;;;4.68;1.92;;;1.90;99.90;;;;;;7378175;19;20328;-71
2022/04/10 03:18:54;;;;;;;1.97;1.70;;;1.90;99.90;;;;;;7380093;19;20375;-70
2022/04/10 03:21:20;;;;;;;1.85;1.60;;;1.90;99.90;;;;;;7377858;19;20354;-70
2022/04/10 03:23:46;;;;;;;3.67;2.20;;;1.80;99.90;;;;;;7378294;19;20336;-70
2022/04/10 03:26:11;;;;;;;2.10;1.90;;;1.80;99.90;;;;;;7377109;19;20848;-72
2022/04/10 03:28:38;;;;;;;2.70;1.92;;;1.80;99.90;;;;;;7376321;19;20333;-72
2022/04/10 03:31:04;;;;;;;3.08;1.75;;;1.80;99.90;;;;;;7376512;19;20308;-71
2022/04/10 03:33:30;;;;;;;1.90;1.67;;;1.80;99.90;;;;;;7376504;19;20857;-70
2022/04/10 03:35:58;;;;;;;2.95;1.80;;;1.80;99.90;;;;;;7376107;19;20337;-72
2022/04/10 03:38:24;;;;;;;5.18;2.20;;;1.80;99.90;;;;;;7377491;19;20301;-70
2022/04/10 03:40:50;;;;;;;2.30;1.92;;;1.80;99.90;;;;;;7376783;19;20337;-70
2022/04/10 03:43:16;;;;;;;2.70;2.00;;;1.80;99.90;;;;;;7371804;19;20485;-70
2022/04/10 03:45:42;;;;;;;2.87;2.40;;;1.90;99.90;;;;;;7377263;19;20344;-71
2022/04/10 03:48:08;;;;;;;2.45;2.10;;;1.90;99.90;;;;;;7378094;19;20308;-70
2022/04/10 03:50:34;;;;;;;2.37;1.80;;;1.90;99.90;;;;;;7373932;19;20333;-71
2022/04/10 03:53:01;;;;;;;2.63;2.05;;;2.00;99.90;;;;;;7375985;19;20308;-71
2022/04/10 03:55:27;;;;;;;2.30;2.10;;;2.00;99.90;;;;;;7375309;19;21169;-71
2022/04/10 03:57:56;;;;;;;2.17;1.90;;;2.10;99.90;;;;;;7377240;19;20381;-71
2022/04/10 04:00:22;;;;;;;2.70;2.40;;;2.10;99.90;;;;;;7374648;19;21152;-73
2022/04/10 04:02:55;;;;;;;2.78;2.28;;;2.20;99.90;;;;;;7378500;19;20982;-70
2022/04/10 04:05:25;;;;;;;2.78;2.17;;;2.20;99.90;;;;;;7378458;19;20342;-71
2022/04/10 04:07:51;;;;;;;2.37;2.10;;;2.30;99.90;;;;;;7378570;19;20405;-70
2022/04/10 04:10:18;;;;;;;2.78;2.15;;;2.30;99.90;;;;;;7376131;19;21223;-71
2022/04/10 04:12:43;;;;;;;4.10;2.10;;;2.40;99.90;;;;;;7375670;19;20432;-71
2022/04/10 04:15:11;;;;;;;2.43;2.10;;;2.40;99.90;;;;;;7373642;19;21044;-71
2022/04/10 04:17:37;;;;;;;2.53;2.33;;;2.40;99.90;;;;;;7377628;19;20309;-71
2022/04/10 04:20:05;;;;;;;3.58;2.33;;;2.40;99.90;;;;;;7376016;19;20352;-70
2022/04/10 04:22:32;;;;;;;3.10;2.28;;;2.40;99.90;;;;;;7373720;19;21007;-70
2022/04/10 04:24:57;;;;;;;2.17;2.03;;;2.40;99.90;;;;;;7384320;19;20301;-70
2022/04/10 04:27:24;;;;;;;2.78;2.10;;;2.40;99.90;;;;;;7385565;19;20340;-71
2022/04/10 04:29:50;;;;;;;2.72;2.22;;;2.50;99.90;;;;;;7384331;19;20335;-70
2022/04/10 04:32:16;;;;;;;3.42;2.33;;;2.50;99.90;;;;;;7381995;19;20345;-70
2022/04/10 04:34:41;;;;;;;2.40;2.20;;;2.50;99.90;;;;;;7382585;19;20333;-70
2022/04/10 04:37:09;;;;;;;3.50;2.40;;;2.50;99.90;;;;;;7382210;19;20316;-69
2022/04/10 04:39:35;;;;;;;3.10;2.40;;;2.50;99.90;;;;;;7382374;19;21412;-70
2022/04/10 04:42:00;;;;;;;2.92;2.33;;;2.40;99.90;;;;;;7379122;19;20516;-69
2022/04/10 04:44:26;;;;;;;2.70;2.50;;;2.40;99.90;;;;;;7381421;19;20336;-71
2022/04/10 04:46:52;;;;;;;4.20;2.97;;;2.50;99.90;;;;;;7382194;19;20424;-69
2022/04/10 04:49:18;;;;;;;2.67;2.33;;;2.40;99.90;;;;;;7382062;19;20766;-70
2022/04/10 04:51:44;;;;;;;2.65;2.40;;;2.40;99.90;;;;;;7379777;19;20366;-69
2022/04/10 04:54:10;;;;;;;3.13;2.40;;;2.40;99.90;;;;;;7380222;19;20439;-69
2022/04/10 04:56:37;;;;;;;2.90;2.30;;;2.40;99.90;;;;;;7381787;19;20312;-69
2022/04/10 04:59:05;;;;;;;4.55;2.35;;;2.40;99.90;;;;;;7382478;19;20332;-69
2022/04/10 05:01:31;;;;;;;5.22;2.65;;;2.40;99.90;;;;;;7381373;19;20317;-69
2022/04/10 05:03:57;;;;;;;3.70;2.30;;;2.50;99.90;;;;;;7381999;19;20345;-69
2022/04/10 05:06:25;;;;;;;3.67;2.40;;;2.50;99.90;;;;;;7379501;19;20320;-69
2022/04/10 05:08:51;;;;;;;3.70;2.47;;;2.60;99.90;;;;;;7383630;19;20445;-69
2022/04/10 05:11:17;;;;;;;4.93;2.57;;;2.60;99.90;;;;;;7381434;19;20380;-69
2022/04/10 05:13:43;;;;;;;4.75;2.63;;;2.70;99.90;;;;;;7381168;19;20350;-69
2022/04/10 05:16:10;;;;;;;2.97;2.30;;;2.70;99.90;;;;;;7380729;19;20348;-69
2022/04/10 05:18:40;;;;;;;7.57;2.60;;;2.70;99.90;;;;;;7383116;19;20352;-70
2022/04/10 05:21:06;;;;;;;4.17;2.30;;;2.80;99.90;;;;;;7379351;19;20844;-69
2022/04/10 05:23:32;;;;;;;3.07;2.43;;;2.80;99.90;;;;;;7379227;19;20446;-69
2022/04/10 05:26:07;;;;;;;3.25;2.50;;;2.90;99.90;;;;;;7379851;19;20337;-69
2022/04/10 05:28:35;;;;;;;2.38;2.17;;;2.90;99.90;;;;;;7380164;19;20332;-69
2022/04/10 05:31:02;;;;;;;3.13;2.30;;;2.90;99.90;;;;;;7383438;19;20348;-70
2022/04/10 05:33:33;;;;;;;2.88;2.47;;;2.90;99.90;;;;;;7381051;19;20344;-70
2022/04/10 05:35:59;;;;;;;2.75;2.17;;;2.90;99.90;;;;;;7379382;19;20415;-69
2022/04/10 05:38:25;;;;;;;3.65;2.58;;;2.90;99.90;;;;;;7379866;19;20311;-69
2022/04/10 05:40:54;;;;;;;3.15;2.40;;;3.00;99.90;;;;;;7378812;19;20437;-69
2022/04/10 05:43:23;;;;;;;4.80;2.45;;;3.10;99.90;;;;;;7374850;19;20328;-69
2022/04/10 05:45:50;;;;;;;3.50;2.40;;;3.10;99.90;;;;;;7378159;19;20315;-69
2022/04/10 05:48:16;;;;;;;2.63;2.25;;;3.30;99.90;;;;;;7384473;19;21138;-69
2022/04/10 05:50:43;;;;;;;5.78;2.45;;;3.40;99.90;;;;;;7381046;19;20836;-70
2022/04/10 05:53:08;;;;;;;2.63;2.10;;;3.40;99.90;;;;;;7379775;19;20333;-69
2022/04/10 05:55:38;;;;;;;3.03;2.40;;;3.40;99.90;;;;;;7379103;19;20329;-69
2022/04/10 05:58:09;;;;;;;4.45;2.17;;;3.40;99.90;;;;;;7378703;19;20336;-69
2022/04/10 06:00:36;;;;;;;3.13;2.30;;;3.40;99.90;;;;;;7380091;19;20313;-69
2022/04/10 06:03:16;;;;;;;4.28;2.10;;;3.40;99.90;;;;;;7277967;19;2004543;-69
2022/04/10 06:05:45;;;;;;;3.85;2.13;;;3.30;99.90;;;;;;7377774;19;20304;-70
2022/04/10 06:08:18;;;;;;;3.23;2.43;;;3.30;99.90;;;;;;7381845;19;20328;-69
2022/04/10 06:10:44;;;;;;;4.67;2.53;;;3.30;99.90;;;;;;7379004;19;20354;-69
2022/04/10 06:13:11;;;;;;;4.00;2.20;;;3.40;99.90;;;;;;7379618;19;20305;-69
2022/04/10 06:15:45;;;;;;;2.60;2.30;;;3.50;99.90;;;;;;7379392;19;20301;-70
2022/04/10 06:18:11;;;;;;;5.57;2.67;;;3.50;99.90;;;;;;7379756;19;20896;-69
2022/04/10 06:20:38;;;;;;;3.33;2.33;;;3.50;99.90;;;;;;7380379;19;20338;-69
2022/04/10 06:23:04;;;;;;;4.03;2.47;;;3.50;99.90;;;;;;7378776;19;20333;-70
2022/04/10 06:25:30;;;;;;;3.88;2.50;;;3.60;99.90;;;;;;7377775;19;20358;-69
2022/04/10 06:27:56;;;;;;;4.05;2.65;;;3.60;99.90;;;;;;7379065;19;20320;-69
2022/04/10 06:30:25;;;;;;;3.50;2.60;;;3.70;99.90;;;;;;7377655;19;20341;-70
2022/04/10 06:32:55;;;;;;;4.10;2.40;;;3.70;99.90;;;;;;7379741;19;20780;-70
2022/04/10 06:35:22;;;;;;;3.67;2.30;;;3.70;99.90;;;;;;7383383;19;20345;-70
2022/04/10 06:37:50;;;;;;;4.03;2.70;;;3.80;99.90;;;;;;7381937;19;20320;-69
2022/04/10 06:40:16;;;;;;;4.05;2.75;;;3.90;99.90;;;;;;7378632;19;20336;-70
2022/04/10 06:42:42;;;;;;;6.47;3.57;;;3.90;99.90;;;;;;7379627;19;20313;-69
2022/04/10 06:45:31;;;;;;;3.30;2.40;;;3.90;99.90;;;;;;7273941;19;2004586;-70
2022/04/10 06:47:56;;;;;;;4.13;2.70;;;3.80;99.90;;;;;;7380398;19;20316;-70
2022/04/10 06:50:31;;;;;;;5.53;2.65;;;3.80;99.90;;;;;;7275725;19;2004375;-69
2022/04/10 06:52:59;;;;;;;3.28;2.83;;;3.90;99.90;;;;;;7378116;19;20483;-70
2022/04/10 06:55:25;;;;;;;3.78;2.28;;;3.80;99.90;;;;;;7377298;19;20757;-70
2022/04/10 06:57:51;;;;;;;4.60;2.50;;;3.90;99.90;;;;;;7380737;19;20677;-70
2022/04/10 07:00:17;;;;;;;2.73;2.40;;;3.90;99.90;;;;;;7377036;19;21150;-69
2022/04/10 07:02:48;;;;;;;3.08;2.60;;;3.90;99.90;;;;;;7377842;19;21081;-70
2022/04/10 07:05:14;;;;;;;3.70;2.50;;;3.90;99.90;;;;;;7376454;19;20312;-70
2022/04/10 07:07:44;;;;;;;2.88;2.40;;;4.10;99.90;;;;;;7381062;19;20329;-70
2022/04/10 07:10:12;;;;;;;7.20;3.10;;;4.30;99.90;;;;;;7375406;19;20713;-69
2022/04/10 07:12:38;;;;;;;4.07;2.67;;;4.40;99.90;;;;;;7377795;19;20375;-70
2022/04/10 07:15:04;;;;;;;3.53;2.20;;;4.40;99.90;;;;;;7374561;19;20677;-70
2022/04/10 07:17:29;;;;;;;6.50;2.90;;;4.40;99.90;;;;;;7379040;19;20316;-69
2022/04/10 07:19:59;;;;;;;3.77;3.00;;;4.30;99.90;;;;;;7376048;19;20301;-68
2022/04/10 07:25:10;;;;;;;4.25;2.80;;;4.30;99.90;;;;;;7275340;19;2004596;-69
2022/04/10 07:27:37;;;;;;;5.47;2.87;;;4.30;99.90;;;;;;7377686;19;20345;-69
2022/04/10 07:30:17;;;;;;;2.92;2.67;;;4.40;99.90;;;;;;7375224;19;20355;-69
2022/04/10 07:32:53;;;;;;;2.83;2.30;;;4.50;99.90;;;;;;7381290;19;20857;-69
2022/04/10 07:35:19;;;;;;;4.75;2.60;;;4.60;99.90;;;;;;7377712;19;20313;-69
2022/04/10 07:37:51;;;;;;;6.30;3.50;;;4.60;99.90;;;;;;7378300;19;20297;-69
2022/04/10 07:40:17;;;;;;;6.90;3.13;;;4.60;99.90;;;;;;7380553;19;20411;-68
2022/04/10 07:42:43;;;;;;;4.93;2.63;;;4.60;99.90;;;;;;7376388;19;20313;-69
2022/04/10 07:48:07;;;;;;;5.85;2.80;;;4.60;99.90;;;;;;7377270;19;20308;-69
2022/04/10 07:50:34;;;;;;;4.90;3.30;;;4.60;99.90;;;;;;7374038;19;20321;-69
2022/04/10 07:53:00;;;;;;;6.30;3.22;;;4.70;99.90;;;;;;7375255;19;20329;-69
2022/04/10 07:55:29;;;;;;;4.95;3.10;;;4.80;99.90;;;;;;7375951;19;21407;-69
2022/04/10 07:57:57;;;;;;;4.53;2.80;;;4.90;99.90;;;;;;7378135;19;20744;-70
2022/04/10 08:00:24;;;;;;;4.25;2.65;;;5.20;99.90;;;;;;7382138;19;20303;-69
2022/04/10 08:02:59;;;;;;;4.13;2.75;;;5.20;99.90;;;;;;7282126;19;2004504;-69
2022/04/10 08:05:43;;;;;;;7.80;2.97;;;5.30;99.90;;;;;;7280536;19;2004538;-70
2022/04/10 08:08:16;;;;;;;4.15;2.80;;;5.60;99.90;;;;;;7384023;19;20335;-69
2022/04/10 08:10:42;;;;;;;4.05;2.60;;;5.60;99.90;;;;;;7382430;19;20320;-69
2022/04/10 08:13:07;;;;;;;6.47;3.30;;;5.70;99.90;;;;;;7382855;19;20300;-70
2022/04/10 08:15:33;;;;;;;4.70;2.90;;;5.70;99.90;;;;;;7384148;19;20312;-70
2022/04/10 08:17:59;;;;;;;4.93;2.90;;;5.70;99.90;;;;;;7385751;19;21054;-69
2022/04/10 08:20:24;;;;;;;3.57;2.37;;;5.70;99.90;;;;;;7380551;19;20357;-71
2022/04/10 08:22:50;;;;;;;5.65;2.58;;;5.70;99.90;;;;;;7382643;19;20324;-71
2022/04/10 08:25:16;;;;;;;3.47;2.50;;;5.50;99.90;;;;;;7377583;19;20353;-69
2022/04/10 08:27:42;;;;;;;3.88;2.67;;;5.40;99.90;;;;;;7381306;19;20336;-70
2022/04/10 08:30:09;;;;;;;6.78;2.72;;;5.50;99.90;;;;;;7380686;19;20862;-69
2022/04/10 08:32:38;;;;;;;8.00;2.60;;;5.40;99.90;;;;;;7379233;19;20332;-69
2022/04/10 08:35:04;;;;;;;4.28;2.72;;;5.30;99.90;;;;;;7380053;19;20320;-69
2022/04/10 08:37:29;;;;;;;3.50;2.40;;;5.40;99.90;;;;;;7380358;19;20332;-67
2022/04/10 08:39:55;;;;;;;6.03;3.00;;;5.40;99.90;;;;;;7385536;19;20333;-69
2022/04/10 08:42:21;;;;;;;4.10;2.30;;;5.50;99.90;;;;;;7384334;19;20845;-69
2022/04/10 08:44:47;;;;;;;6.20;2.27;;;5.40;99.90;;;;;;7387259;19;20351;-69
2022/04/10 08:47:14;;;;;;;3.93;2.70;;;5.60;99.90;;;;;;7381152;19;21078;-70
2022/04/10 08:49:39;;;;;;;5.00;2.53;;;5.60;99.90;;;;;;7383271;19;20349;-69
2022/04/10 08:52:05;;;;;;;3.10;2.30;;;5.60;99.90;;;;;;7382457;19;20428;-70
2022/04/10 08:54:31;;;;;;;3.97;2.65;;;5.60;99.90;;;;;;7382305;19;20920;-69
2022/04/10 08:56:57;;;;;;;4.70;2.13;;;5.70;99.90;;;;;;7381820;19;20308;-70
2022/04/10 08:59:22;;;;;;;4.35;2.20;;;5.80;99.90;;;;;;7383285;19;20304;-70
2022/04/10 09:01:53;;;;;;;4.35;2.88;;;5.90;99.90;;;;;;7380732;19;20344;-70
2022/04/10 09:04:20;;;;;;;4.03;2.17;;;5.90;99.90;;;;;;7381424;19;21149;-70
2022/04/10 09:07:05;;;;;;;4.90;3.13;;;5.90;99.90;;;;;;7381440;19;20786;-70
2022/04/10 09:09:31;;;;;;;3.30;2.30;;;6.00;99.90;;;;;;7381774;19;20881;-70
2022/04/10 09:11:57;;;;;;;6.80;3.03;;;5.80;99.90;;;;;;7382163;19;20733;-70
2022/04/10 09:14:41;;;;;;;5.35;2.92;;;5.90;99.90;;;;;;7381646;19;21145;-70
2022/04/10 09:17:16;;;;;;;3.97;2.30;;;5.90;99.90;;;;;;7282424;19;2004684;-71
2022/04/10 09:19:43;;;;;;;7.93;3.30;;;6.10;99.90;;;;;;7385193;19;20709;-70
2022/04/10 09:22:27;;;;;;;5.18;2.80;;;6.20;99.90;;;;;;7381627;19;20681;-67
2022/04/10 09:25:07;;;;;;;3.60;2.50;;;6.20;99.90;;;;;;7280244;19;2004338;-71
2022/04/10 09:27:33;;;;;;;5.77;3.27;;;6.30;99.90;;;;;;7277530;19;2004582;-70
2022/04/10 09:29:59;;;;;;;6.60;3.38;;;6.30;99.90;;;;;;7380231;19;20365;-70
2022/04/10 09:32:38;;;;;;;5.30;2.90;;;6.40;99.90;;;;;;7382527;19;20305;-70
2022/04/10 09:35:04;;;;;;;4.05;2.30;;;6.40;99.90;;;;;;7379001;19;20395;-70
2022/04/10 09:37:40;;;;;;;6.05;2.70;;;6.40;99.90;;;;;;7382671;19;20742;-70
2022/04/10 09:40:28;;;;;;;4.38;2.10;;;6.40;99.90;;;;;;7279877;19;2012490;-70
2022/04/10 09:42:57;;;;;;;4.22;2.28;;;6.50;99.90;;;;;;7280564;19;2004589;-70
2022/04/10 09:45:36;;;;;;;3.97;2.25;;;6.60;99.90;;;;;;7381047;19;20337;-70
2022/04/10 09:48:20;;;;;;;3.53;2.28;;;6.90;99.90;;;;;;7284762;19;2004460;-71
2022/04/10 09:50:46;;;;;;;7.20;4.28;;;7.00;99.90;;;;;;7277589;19;2004465;-71
2022/04/10 09:53:12;;;;;;;5.20;2.95;;;6.90;99.90;;;;;;7381080;19;20316;-71
2022/04/10 09:55:38;;;;;;;5.23;2.53;;;7.00;99.90;;;;;;7379140;19;20357;-71
2022/04/10 09:58:10;;;;;;;3.28;2.42;;;7.00;99.90;;;;;;7369496;19;20357;-71
2022/04/10 10:00:43;;;;;;;3.72;2.30;;;7.10;99.90;;;;;;7377562;19;20317;-71
2022/04/10 10:03:09;;;;;;;6.13;2.23;;;6.80;99.90;;;;;;7378719;19;21638;-72
2022/04/10 10:05:35;;;;;;;4.15;2.78;;;6.50;99.90;;;;;;7379147;19;20328;-71
2022/04/10 10:08:01;;;;;;;4.07;2.57;;;5.90;99.90;;;;;;7381561;19;20304;-72
2022/04/10 10:10:31;;;;;;;5.90;3.67;;;5.80;99.90;;;;;;7378645;19;20333;-72
2022/04/10 10:12:58;;;;;;;4.53;3.63;;;5.90;99.90;;;;;;7379215;19;20389;-72
2022/04/10 10:15:24;;;;;;;5.50;3.80;;;6.10;99.90;;;;;;7378356;19;20325;-71
2022/04/10 10:17:51;;;;;;;4.20;2.80;;;6.30;99.90;;;;;;7381947;19;20324;-70
2022/04/10 10:20:17;;;;;;;3.00;2.47;;;6.10;99.90;;;;;;7376193;19;21098;-70
2022/04/10 10:22:42;;;;;;;3.83;2.55;;;5.40;99.90;;;;;;7373784;19;20305;-72
2022/04/10 10:25:15;;;;;;;3.70;2.70;;;4.30;99.90;;;;;;7376712;19;20400;-72
2022/04/10 10:28:06;;;;;;;6.47;2.60;;;3.90;99.90;;;;;;7377450;19;20959;-72
2022/04/10 10:30:56;;;;;;;4.22;2.75;;;3.90;99.90;;;;;;7272992;19;2004394;-72
2022/04/10 10:33:22;;;;;;;3.35;2.63;;;3.90;99.90;;;;;;7274109;19;2004322;-72
2022/04/10 10:35:52;;;;;;;4.43;3.35;;;4.40;99.90;;;;;;7375686;19;20420;-72
2022/04/10 10:38:25;;;;;;;3.63;2.83;;;5.00;99.90;;;;;;7376978;19;20338;-71
2022/04/10 10:40:52;;;;;;;3.85;2.40;;;5.70;99.90;;;;;;7377594;19;21296;-71
2022/04/10 10:43:23;;;;;;;2.88;2.42;;;6.20;99.90;;;;;;7374713;19;20657;-70
2022/04/10 10:45:50;;;;;;;5.75;2.67;;;6.40;99.90;;;;;;7376528;19;21045;-70
2022/04/10 10:48:35;;;;;;;4.03;3.05;;;6.40;99.90;;;;;;7381004;19;20317;-70
2022/04/10 10:51:02;;;;;;;6.80;4.00;;;6.30;99.90;;;;;;7281176;19;2004584;-71
2022/04/10 10:53:47;;;;;;;7.18;3.10;;;6.10;99.90;;;;;;7380546;19;20387;-71
2022/04/10 10:56:30;;;;;;;3.22;2.17;;;6.10;99.90;;;;;;7276755;19;2004502;-71
2022/04/10 10:59:16;;;;;;;3.95;2.30;;;6.30;99.90;;;;;;7279314;19;2004496;-71
2022/04/10 11:01:59;;;;;;;2.40;1.80;;;6.80;99.90;;;;;;7279129;19;2004145;-71
2022/04/10 11:04:26;;;;;;;6.15;2.40;;;7.40;99.90;;;;;;7379152;19;20332;-71
2022/04/10 11:06:51;;;;;;;4.60;2.22;;;7.80;99.90;;;;;;7380042;19;20388;-72
2022/04/10 11:09:21;;;;;;;4.27;2.37;;;7.70;99.90;;;;;;7378395;19;20405;-71
2022/04/10 11:11:48;;;;;;;4.43;2.75;;;7.80;99.90;;;;;;7376753;19;20336;-71
2022/04/10 11:14:41;;;;;;;3.42;2.65;;;7.70;99.90;;;;;;7378221;19;20321;-71
2022/04/10 11:17:26;;;;;;;3.87;2.20;;;7.60;99.90;;;;;;7377136;19;20356;-71
2022/04/10 11:19:56;;;;;;;3.50;1.80;;;7.20;99.90;;;;;;7277065;19;2004477;-71
2022/04/10 11:22:22;;;;;;;3.15;1.80;;;6.90;99.90;;;;;;7376077;19;20305;-71
2022/04/10 11:24:56;;;;;;;2.50;1.70;;;6.40;99.90;;;;;;7378701;19;20900;-71
2022/04/10 11:27:44;;;;;;;2.40;1.70;;;6.20;99.90;;;;;;7377866;19;20692;-71
2022/04/10 11:30:28;;;;;;;1.30;1.20;;;6.20;99.90;;;;;;7378240;19;20408;-71
2022/04/10 11:33:00;;;;;;;2.95;1.50;;;6.60;99.90;;;;;;7378515;19;20336;-71
2022/04/10 11:35:30;;;;;;;1.80;1.40;;;7.00;99.90;;;;;;7376201;19;20309;-71
2022/04/10 11:37:57;;;;;;;2.38;1.55;;;7.60;99.90;;;;;;7376587;19;20333;-70
2022/04/10 11:40:28;;;;;;;2.73;1.90;;;8.00;99.90;;;;;;7377377;19;20317;-71
2022/04/10 11:42:57;;;;;;;2.35;1.90;;;8.40;99.90;;;;;;7377829;19;20946;-71
2022/04/10 11:45:24;;;;;;;4.60;2.20;;;8.10;99.90;;;;;;7374835;19;20332;-71
2022/04/10 11:47:50;;;;;;;3.08;1.48;;;7.60;99.90;;;;;;7378702;19;20861;-71
2022/04/10 11:50:17;;;;;;;3.53;1.63;;;7.20;99.90;;;;;;7377518;19;20360;-70
2022/04/10 11:52:56;;;;;;;4.75;1.70;;;6.90;99.90;;;;;;7380969;19;20323;-71
2022/04/10 11:55:27;;;;;;;2.00;1.40;;;6.90;99.90;;;;;;7376400;19;20336;-71
2022/04/10 11:57:53;;;;;;;2.83;2.08;;;6.90;99.90;;;;;;7379160;19;20312;-71
2022/04/10 12:00:19;;;;;;;3.97;2.30;;;6.70;99.90;;;;;;7375689;19;20836;-71
2022/04/10 12:02:44;;;;;;;2.97;1.50;;;6.70;99.90;;;;;;7377353;19;20305;-71
2022/04/10 12:05:10;;;;;;;2.25;1.70;;;6.70;99.90;;;;;;7375359;19;20890;-71
2022/04/10 12:07:39;;;;;;;1.80;1.50;;;7.30;99.90;;;;;;7379183;19;20312;-70
2022/04/10 12:10:05;;;;;;;2.30;1.60;;;7.70;99.90;;;;;;7377187;19;20363;-71
2022/04/10 12:12:40;;;;;;;5.00;1.80;;;8.00;99.90;;;;;;7376852;19;20308;-71
2022/04/10 12:15:16;;;;;;;2.25;1.70;;;8.20;99.90;;;;;;7374420;19;20313;-68
2022/04/10 12:17:42;;;;;;;4.38;2.13;;;8.70;99.90;;;;;;7378193;19;20886;-71
2022/04/10 12:20:08;;;;;;;3.15;1.77;;;8.00;99.90;;;;;;7377077;19;20348;-71
2022/04/10 12:22:34;;;;;;;4.15;1.88;;;8.30;99.90;;;;;;7377775;19;20339;-71
2022/04/10 12:25:00;;;;;;;2.08;1.10;;;8.60;99.90;;;;;;7377550;19;20317;-71
2022/04/10 12:27:26;;;;;;;2.23;1.60;;;8.90;99.90;;;;;;7370804;19;20332;-72
2022/04/10 12:29:51;;;;;;;4.47;1.90;;;9.20;99.90;;;;;;7372973;19;20729;-71
2022/04/10 12:32:17;;;;;;;4.50;1.90;;;9.50;99.90;;;;;;7371957;19;20419;-71
2022/04/10 12:34:43;;;;;;;4.05;1.63;;;9.20;99.90;;;;;;7371395;19;20352;-71
2022/04/10 12:37:12;;;;;;;3.05;1.77;;;9.40;99.90;;;;;;7371420;19;20313;-71
2022/04/10 12:39:38;;;;;;;2.55;1.60;;;9.50;99.90;;;;;;7374872;19;20313;-71
2022/04/10 12:42:09;;;;;;;4.57;2.83;;;9.70;99.90;;;;;;7375635;19;20741;-70
2022/04/10 12:44:36;;;;;;;5.83;2.43;;;10.00;99.90;;;;;;7378568;19;20324;-72
2022/04/10 12:47:02;;;;;;;4.55;2.78;;;10.00;99.90;;;;;;7383664;19;20312;-71
2022/04/10 12:49:27;;;;;;;4.63;2.80;;;9.60;99.90;;;;;;7382618;19;20376;-71
2022/04/10 12:51:59;;;;;;;5.70;3.27;;;9.10;99.90;;;;;;7382769;19;20293;-71
2022/04/10 12:54:38;;;;;;;5.57;3.20;;;9.30;99.90;;;;;;7385604;19;20326;-71
2022/04/10 12:57:11;;;;;;;4.85;2.03;;;9.40;99.90;;;;;;7280962;19;2004338;-71
2022/04/10 12:59:43;;;;;;;4.07;2.40;;;9.00;99.90;;;;;;7383519;19;20304;-71
2022/04/10 13:02:22;;;;;;;3.22;1.90;;;9.20;99.90;;;;;;7380044;19;20341;-71
2022/04/10 13:04:54;;;;;;;4.88;2.20;;;8.80;99.90;;;;;;7383012;19;20315;-71
2022/04/10 13:07:20;;;;;;;3.75;1.90;;;8.10;99.90;;;;;;7380451;19;20349;-71
2022/04/10 13:10:09;;;;;;;3.73;1.80;;;8.30;99.90;;;;;;7383875;19;20344;-70